Time;durP1;ratioP1;P1;durP2;ratioP2;P2;SDS_P1;SDS_P2;PMS_P1;PMS_P2;Temp;Humidity;BMP_temperature;BMP_pressure;BME280_temperature;BME280_humidity;BME280_pressure;Samples;Min_cycle;Max_cycle;Signal;HPM_P1;HPM_P2
2022/09/26 00:07:40;;;;;;;23.2;27.4;;;;;;;9.9;89.6;98110;;;;
2022/09/26 00:17:40;;;;;;;20.7;23.9;;;;;;;10.1;89.8;98100;;;;
2022/09/26 00:27:40;;;;;;;20.7;23.9;;;;;;;10.2;89.3;98080;;;;
2022/09/26 00:38:40;;;;;;;20.7;23.9;;;;;;;10;88.8;98070;;;;
2022/09/26 00:49:40;;;;;;;20.5;26.4;;;;;;;9.9;88.6;98060;;;;
2022/09/26 00:59:40;;;;;;;20.5;26.4;;;;;;;10.1;88.8;98060;;;;
2022/09/26 01:09:40;;;;;;;20.5;26.4;;;;;;;10.2;88.9;98060;;;;
2022/09/26 01:19:40;;;;;;;19.6;24.9;;;;;;;10.1;88.3;98050;;;;
2022/09/26 01:30:40;;;;;;;19.6;24.9;;;;;;;10;87.9;98050;;;;
2022/09/26 01:40:40;;;;;;;19.6;24.9;;;;;;;9.9;87.6;98040;;;;
2022/09/26 01:50:40;;;;;;;22.7;27.7;;;;;;;9.9;87.7;98030;;;;
2022/09/26 02:00:40;;;;;;;22.7;27.7;;;;;;;9.8;87.7;98010;;;;
2022/09/26 02:10:40;;;;;;;22.7;27.7;;;;;;;10;88.4;98000;;;;
2022/09/26 02:21:40;;;;;;;23;26.3;;;;;;;10.2;88.6;98000;;;;
2022/09/26 02:31:40;;;;;;;23;26.3;;;;;;;10.3;89.1;98010;;;;
2022/09/26 02:41:40;;;;;;;23;26.3;;;;;;;10.5;88.9;97990;;;;
2022/09/26 02:51:40;;;;;;;21.4;25.4;;;;;;;10.5;88.5;97980;;;;
2022/09/26 03:02:40;;;;;;;21.4;25.4;;;;;;;10.6;88.4;97970;;;;
2022/09/26 03:12:40;;;;;;;21.4;25.4;;;;;;;10.6;87.8;97960;;;;
2022/09/26 03:23:40;;;;;;;20.4;24.1;;;;;;;10.4;87.5;97940;;;;
2022/09/26 03:33:40;;;;;;;20.4;24.1;;;;;;;10.2;86.7;97940;;;;
2022/09/26 03:44:42;;;;;;;18.8;22.7;;;;;;;10;87;97930;;;;
2022/09/26 03:55:40;;;;;;;18.8;22.7;;;;;;;9.9;86.8;97930;;;;
2022/09/26 04:05:41;;;;;;;18.8;22.7;;;;;;;9.9;87.5;97940;;;;
2022/09/26 04:16:40;;;;;;;20.2;24.5;;;;;;;10.1;87.8;97940;;;;
2022/09/26 04:26:40;;;;;;;20.2;24.5;;;;;;;10.2;88.1;97920;;;;
2022/09/26 04:36:41;;;;;;;20.2;24.5;;;;;;;10.4;88.1;97920;;;;
2022/09/26 04:47:40;;;;;;;21;24;;;;;;;10.5;87.9;97910;;;;
2022/09/26 04:57:40;;;;;;;21;24;;;;;;;10.5;87.8;97900;;;;
2022/09/26 05:07:40;;;;;;;21;24;;;;;;;10.7;87.9;97900;;;;
2022/09/26 05:18:40;;;;;;;23.1;27.2;;;;;;;10.8;87.8;97890;;;;
2022/09/26 05:28:40;;;;;;;23.1;27.2;;;;;;;10.8;88.3;97880;;;;
2022/09/26 05:38:40;;;;;;;23.1;27.2;;;;;;;11.1;88.4;97890;;;;
2022/09/26 05:49:40;;;;;;;22;24.6;;;;;;;11.4;88;97890;;;;
2022/09/26 05:59:40;;;;;;;22;24.6;;;;;;;11.5;87.5;97890;;;;
2022/09/26 06:10:40;;;;;;;22;24.6;;;;;;;11.6;86.9;97890;;;;
2022/09/26 06:21:42;;;;;;;22.7;26.3;;;;;;;11.9;86.5;97870;;;;
2022/09/26 06:32:40;;;;;;;22.7;26.3;;;;;;;12;86.3;97870;;;;
2022/09/26 06:42:40;;;;;;;22.7;26.3;;;;;;;12.4;86.2;97870;;;;
2022/09/26 06:53:40;;;;;;;23.2;28.4;;;;;;;12.6;85.1;97870;;;;
2022/09/26 07:03:40;;;;;;;23.2;28.4;;;;;;;12.2;85.4;97870;;;;
2022/09/26 07:14:40;;;;;;;20.8;25.3;;;;;;;12.6;85.8;97860;;;;
2022/09/26 07:25:40;;;;;;;20.8;25.3;;;;;;;13.2;85.7;97870;;;;
2022/09/26 07:36:40;;;;;;;20.8;25.3;;;;;;;13.7;84.3;97870;;;;
2022/09/26 07:58:40;;;;;;;22.6;27;;;;;;;14.4;82.9;97860;;;;
2022/09/26 08:08:40;;;;;;;22.6;27;;;;;;;14.5;82.4;97860;;;;
2022/09/26 08:19:40;;;;;;;27.4;32.6;;;;;;;14.3;82.5;97860;;;;
2022/09/26 08:29:40;;;;;;;27.4;32.6;;;;;;;14.3;83;97860;;;;
2022/09/26 08:40:40;;;;;;;27.4;32.6;;;;;;;14.3;82.9;97870;;;;
2022/09/26 08:50:40;;;;;;;27.2;30.8;;;;;;;14.2;83.1;97860;;;;
2022/09/26 09:01:40;;;;;;;27.2;30.8;;;;;;;14;83.4;97870;;;;
2022/09/26 09:12:40;;;;;;;27.2;30.8;;;;;;;13.9;84.5;97870;;;;
2022/09/26 09:22:43;;;;;;;26.1;29.3;;;;;;;13.9;84.9;97880;;;;
2022/09/26 09:33:40;;;;;;;26.1;29.3;;;;;;;14;84.9;97870;;;;
2022/09/26 09:43:40;;;;;;;25.3;31;;;;;;;14.3;84.8;97870;;;;
2022/09/26 09:54:40;;;;;;;25.3;31;;;;;;;14.3;84.5;97880;;;;
2022/09/26 10:04:41;;;;;;;25.3;31;;;;;;;14.3;84.4;97870;;;;
2022/09/26 10:14:40;;;;;;;30.2;35.8;;;;;;;14.7;84.1;97860;;;;
2022/09/26 10:24:40;;;;;;;30.2;35.8;;;;;;;15;83.5;97860;;;;
2022/09/26 10:34:40;;;;;;;30.2;35.8;;;;;;;15;82.7;97850;;;;
2022/09/26 10:45:40;;;;;;;27.4;31.9;;;;;;;15.4;82.2;97840;;;;
2022/09/26 10:55:40;;;;;;;27.4;31.9;;;;;;;15.9;81.9;97830;;;;
2022/09/26 11:05:56;;;;;;;27.4;31.9;;;;;;;16.4;80.2;97830;;;;
2022/09/26 11:16:40;;;;;;;15.7;18.9;;;;;;;17.5;78.7;97810;;;;
2022/09/26 11:26:40;;;;;;;15.7;18.9;;;;;;;18.4;75.8;97800;;;;
2022/09/26 11:36:40;;;;;;;15.7;18.9;;;;;;;18.5;73.8;97780;;;;
2022/09/26 11:47:40;;;;;;;6.7;9;;;;;;;19.1;72.4;97760;;;;
2022/09/26 11:57:41;;;;;;;6.7;9;;;;;;;19.4;69.1;97760;;;;
2022/09/26 12:08:40;;;;;;;6.7;9;;;;;;;19;69.3;97760;;;;
2022/09/26 12:19:40;;;;;;;4.1;7.3;;;;;;;19;68.7;97760;;;;
2022/09/26 12:30:40;;;;;;;4.1;7.3;;;;;;;19.6;68.4;97750;;;;
2022/09/26 12:40:40;;;;;;;4.1;7.3;;;;;;;19.2;67.8;97750;;;;
2022/09/26 12:51:41;;;;;;;4.8;7;;;;;;;19;67.9;97750;;;;
2022/09/26 13:02:40;;;;;;;4.8;7;;;;;;;19.2;67.4;97750;;;;
2022/09/26 13:12:40;;;;;;;4.8;7;;;;;;;19.2;66.9;97750;;;;
2022/09/26 13:23:40;;;;;;;6.5;9.8;;;;;;;19.5;67.5;97740;;;;
2022/09/26 13:33:41;;;;;;;6.5;9.8;;;;;;;19.2;66.4;97730;;;;
2022/09/26 13:43:42;;;;;;;6.4;9.6;;;;;;;18.9;66.6;97720;;;;
2022/09/26 13:54:42;;;;;;;6.4;9.6;;;;;;;18.7;67.1;97710;;;;
2022/09/26 14:04:40;;;;;;;6.4;9.6;;;;;;;18.9;66.7;97700;;;;
2022/09/26 14:14:40;;;;;;;5.7;8.8;;;;;;;18.5;67.3;97690;;;;
2022/09/26 14:25:41;;;;;;;5.7;8.8;;;;;;;18.4;67.3;97690;;;;
2022/09/26 14:35:42;;;;;;;5.7;8.8;;;;;;;18.2;68.6;97690;;;;
2022/09/26 14:45:40;;;;;;;6.5;10.6;;;;;;;18.5;70.4;97690;;;;
2022/09/26 14:56:40;;;;;;;6.5;10.6;;;;;;;18.5;69.4;97690;;;;
2022/09/26 15:07:40;;;;;;;6.5;10.6;;;;;;;18.4;69.5;97690;;;;
2022/09/26 15:17:40;;;;;;;5.2;9.6;;;;;;;18;70;97680;;;;
2022/09/26 15:28:40;;;;;;;5.2;9.6;;;;;;;17.6;70.4;97680;;;;
2022/09/26 15:39:40;;;;;;;5.2;9.6;;;;;;;17.1;71.8;97680;;;;
2022/09/26 15:50:40;;;;;;;4.5;6.3;;;;;;;16.7;72.7;97690;;;;
2022/09/26 16:00:40;;;;;;;4.5;6.3;;;;;;;16.1;73.7;97680;;;;
2022/09/26 16:11:40;;;;;;;4.5;6.3;;;;;;;15.5;75.7;97670;;;;
2022/09/26 16:21:40;;;;;;;5.4;10.6;;;;;;;15.2;77.3;97670;;;;
2022/09/26 16:32:40;;;;;;;5.4;10.6;;;;;;;15;78.2;97680;;;;
2022/09/26 16:42:40;;;;;;;5.4;10.6;;;;;;;14.9;80;97690;;;;
2022/09/26 16:52:41;;;;;;;54.9;64.7;;;;;;;14.7;83;97690;;;;
2022/09/26 17:03:40;;;;;;;54.9;64.7;;;;;;;14.5;85;97680;;;;
2022/09/26 17:13:41;;;;;;;11.2;13.4;;;;;;;14.5;84.5;97660;;;;
2022/09/26 17:23:40;;;;;;;11.2;13.4;;;;;;;14.5;84.6;97670;;;;
2022/09/26 17:33:40;;;;;;;11.2;13.4;;;;;;;14.5;84.1;97680;;;;
2022/09/26 17:44:42;;;;;;;9.4;11.9;;;;;;;14.2;84.5;97680;;;;
2022/09/26 17:54:41;;;;;;;9.4;11.9;;;;;;;13.9;83.8;97680;;;;
2022/09/26 18:05:41;;;;;;;9.4;11.9;;;;;;;13.6;83.2;97670;;;;
2022/09/26 18:15:40;;;;;;;7.1;9.9;;;;;;;13.2;84;97660;;;;
2022/09/26 18:26:43;;;;;;;7.1;9.9;;;;;;;12.8;84.9;97680;;;;
2022/09/26 18:36:40;;;;;;;7.1;9.9;;;;;;;12.7;85;97690;;;;
2022/09/26 18:47:41;;;;;;;6.8;10.5;;;;;;;12.7;85.8;97690;;;;
2022/09/26 18:58:46;;;;;;;6.8;10.5;;;;;;;12.6;87.6;97680;;;;
2022/09/26 19:07:43;;;;;;;6.8;10.5;;;;;;;12.6;86.9;97680;;;;
2022/09/26 19:18:40;;;;;;;19.6;24.5;;;;;;;12.3;86;97680;;;;
2022/09/26 19:29:40;;;;;;;19.6;24.5;;;;;;;12;85.3;97680;;;;
2022/09/26 19:40:40;;;;;;;19.6;24.5;;;;;;;11.7;85.4;97670;;;;
2022/09/26 19:50:40;;;;;;;15.6;18.5;;;;;;;11.6;85.5;97670;;;;
2022/09/26 20:01:40;;;;;;;15.6;18.5;;;;;;;11.4;85.5;97680;;;;
2022/09/26 20:11:40;;;;;;;15.6;18.5;;;;;;;11.4;85.5;97680;;;;
2022/09/26 20:22:41;;;;;;;10.6;14.2;;;;;;;11.4;85.8;97690;;;;
2022/09/26 20:32:40;;;;;;;10.6;14.2;;;;;;;11.3;86.1;97690;;;;
2022/09/26 20:42:40;;;;;;;10.6;14.2;;;;;;;11.2;86.3;97690;;;;
2022/09/26 20:53:40;;;;;;;12.2;17.2;;;;;;;11.2;86.6;97690;;;;
2022/09/26 21:04:40;;;;;;;12.2;17.2;;;;;;;11.1;86.7;97680;;;;
2022/09/26 21:14:40;;;;;;;14.2;20.2;;;;;;;11.1;86.6;97680;;;;
2022/09/26 21:25:40;;;;;;;14.2;20.2;;;;;;;10.9;86.3;97680;;;;
2022/09/26 21:36:40;;;;;;;14.2;20.2;;;;;;;10.6;86.4;97680;;;;
2022/09/26 21:46:40;;;;;;;17;20.5;;;;;;;10.3;87.1;97670;;;;
2022/09/26 21:56:40;;;;;;;17;20.5;;;;;;;10.1;87.1;97660;;;;
2022/09/26 22:07:40;;;;;;;17;20.5;;;;;;;10;87.4;97650;;;;
2022/09/26 22:17:40;;;;;;;12.3;16.8;;;;;;;9.9;88.2;97640;;;;
2022/09/26 22:28:40;;;;;;;12.3;16.8;;;;;;;9.7;87.9;97620;;;;
2022/09/26 22:39:40;;;;;;;12.3;16.8;;;;;;;9.5;87.8;97610;;;;
2022/09/26 22:50:40;;;;;;;9.6;12.6;;;;;;;9.4;88.5;97590;;;;
2022/09/26 23:00:40;;;;;;;9.6;12.6;;;;;;;9.3;89;97590;;;;
2022/09/26 23:10:41;;;;;;;9.6;12.6;;;;;;;9.2;89.4;97590;;;;
2022/09/26 23:21:41;;;;;;;8.4;10.9;;;;;;;9.1;89.3;97580;;;;
2022/09/26 23:31:40;;;;;;;8.4;10.9;;;;;;;9;88.9;97580;;;;
2022/09/26 23:42:40;;;;;;;8.4;10.9;;;;;;;8.8;88.8;97570;;;;
2022/09/26 23:52:40;;;;;;;7.3;10.8;;;;;;;8.7;88.5;97560;;;;
